Time;durP1;ratioP1;P1;durP2;ratioP2;P2;SDS_P1;SDS_P2;PMS_P1;PMS_P2;Temp;Humidity;BMP_temperature;BMP_pressure;BME280_temperature;BME280_humidity;BME280_pressure;Samples;Min_cycle;Max_cycle;Signal;HPM_P1;HPM_P2
2024/02/12 00:00:36;;;;;;;14.50;4.45;;;4.70;99.90;;;;;;6338881;22;20003;-90
2024/02/12 00:03:06;;;;;;;10.75;2.97;;;4.70;99.90;;;;;;6338571;22;20006;-89
2024/02/12 00:05:35;;;;;;;18.13;4.60;;;4.70;99.90;;;;;;6338948;22;20089;-90
2024/02/12 00:08:05;;;;;;;13.35;3.88;;;4.70;99.90;;;;;;6338428;22;20003;-90
2024/02/12 00:10:30;;;;;;;9.77;2.45;;;4.70;99.90;;;;;;6338314;22;20007;-91
2024/02/12 00:12:57;;;;;;;6.00;1.70;;;4.70;99.90;;;;;;6338668;22;20009;-90
2024/02/12 00:15:23;;;;;;;9.57;2.80;;;4.70;99.90;;;;;;6338323;22;20014;-90
2024/02/12 00:17:49;;;;;;;24.30;4.70;;;4.70;99.90;;;;;;6338432;22;20055;-90
2024/02/12 00:20:16;;;;;;;8.00;2.30;;;4.70;99.90;;;;;;6338451;22;20002;-89
2024/02/12 00:22:42;;;;;;;8.80;2.30;;;4.70;99.90;;;;;;6339353;22;20334;-90
2024/02/12 00:25:11;;;;;;;10.73;2.58;;;4.60;99.90;;;;;;6340322;22;20089;-90
2024/02/12 00:27:38;;;;;;;9.60;2.10;;;4.60;99.90;;;;;;6341220;22;20052;-90
2024/02/12 00:30:04;;;;;;;10.27;2.25;;;4.60;99.90;;;;;;6338106;22;19998;-89
2024/02/12 00:32:31;;;;;;;6.63;1.67;;;4.60;99.90;;;;;;6338259;22;20076;-90
2024/02/12 00:34:57;;;;;;;7.95;2.25;;;4.60;99.90;;;;;;6339424;22;20011;-88
2024/02/12 00:37:25;;;;;;;6.28;1.60;;;4.50;99.90;;;;;;6312241;22;20102;-89
2024/02/12 00:39:52;;;;;;;9.15;1.50;;;4.50;99.90;;;;;;6338063;22;20011;-90
2024/02/12 00:42:19;;;;;;;5.65;2.05;;;4.50;99.90;;;;;;6338500;22;20533;-90
2024/02/12 00:44:45;;;;;;;7.85;1.70;;;4.50;99.90;;;;;;6338069;22;20002;-90
2024/02/12 00:47:11;;;;;;;6.00;1.48;;;4.50;99.90;;;;;;6338658;22;20030;-91
2024/02/12 00:49:40;;;;;;;5.88;1.70;;;4.50;99.90;;;;;;6337894;22;20003;-90
2024/02/12 00:52:07;;;;;;;8.52;1.50;;;4.50;99.90;;;;;;6338205;22;20002;-90
2024/02/12 00:54:35;;;;;;;7.85;1.40;;;4.50;99.90;;;;;;6338432;22;20010;-91
2024/02/12 00:57:01;;;;;;;4.97;2.00;;;4.40;99.90;;;;;;6338287;22;20097;-91
2024/02/12 00:59:27;;;;;;;6.43;1.83;;;4.40;99.90;;;;;;6339937;22;20006;-90
2024/02/12 01:01:53;;;;;;;5.07;1.58;;;4.40;99.90;;;;;;6337544;22;20010;-90
2024/02/12 01:04:19;;;;;;;6.25;1.55;;;4.40;99.90;;;;;;6337521;22;20006;-90
2024/02/12 01:06:45;;;;;;;4.22;1.30;;;4.40;99.90;;;;;;6337796;22;20026;-92
2024/02/12 01:09:14;;;;;;;5.32;1.50;;;4.40;99.90;;;;;;6337478;22;19999;-91
2024/02/12 01:11:40;;;;;;;7.15;1.38;;;4.40;99.90;;;;;;6337753;22;20086;-90
2024/02/12 01:14:06;;;;;;;8.13;1.50;;;4.40;99.90;;;;;;6337543;22;20452;-91
2024/02/12 01:16:32;;;;;;;10.00;1.83;;;4.30;99.90;;;;;;6337425;22;20093;-90
2024/02/12 01:19:02;;;;;;;4.22;1.60;;;4.30;99.90;;;;;;6335699;22;20038;-89
2024/02/12 01:21:29;;;;;;;9.15;1.55;;;4.20;99.90;;;;;;6337401;22;20437;-90
2024/02/12 01:23:54;;;;;;;10.77;2.00;;;4.20;99.90;;;;;;6336716;22;20005;-92
2024/02/12 01:26:21;;;;;;;4.55;1.58;;;4.10;99.90;;;;;;6311194;22;19999;-90
2024/02/12 01:28:46;;;;;;;6.75;1.75;;;4.10;99.90;;;;;;6337561;22;20027;-91
2024/02/12 01:31:18;;;;;;;4.43;1.52;;;4.00;99.90;;;;;;6337087;22;20315;-89
2024/02/12 01:33:47;;;;;;;3.13;1.35;;;4.00;99.90;;;;;;6337898;22;20014;-89
2024/02/12 01:36:13;;;;;;;5.20;1.40;;;4.00;99.90;;;;;;6337257;22;20049;-90
2024/02/12 01:38:40;;;;;;;6.40;1.65;;;3.90;99.90;;;;;;6337886;22;20009;-90
2024/02/12 01:41:06;;;;;;;11.88;1.40;;;3.90;99.90;;;;;;6337405;22;20003;-90
2024/02/12 01:43:35;;;;;;;6.72;1.75;;;3.80;99.90;;;;;;6336904;22;20009;-91
2024/02/12 01:46:05;;;;;;;5.88;1.40;;;3.80;99.90;;;;;;6337558;22;20007;-91
2024/02/12 01:48:32;;;;;;;4.93;1.80;;;3.70;99.90;;;;;;6337267;22;20002;-91
2024/02/12 01:51:06;;;;;;;4.63;1.50;;;3.70;99.90;;;;;;6337439;22;20426;-90
2024/02/12 01:53:37;;;;;;;3.20;1.23;;;3.70;99.90;;;;;;6337194;22;20018;-90
2024/02/12 01:56:04;;;;;;;6.13;1.17;;;3.70;99.90;;;;;;6337203;22;20003;-91
2024/02/12 01:58:32;;;;;;;8.07;1.48;;;3.60;99.90;;;;;;6336916;22;20003;-91
2024/02/12 02:00:58;;;;;;;7.93;1.88;;;3.60;99.90;;;;;;6337769;22;19999;-91
2024/02/12 02:03:25;;;;;;;7.32;1.42;;;3.50;99.90;;;;;;6337286;22;20018;-91
2024/02/12 02:05:55;;;;;;;8.65;1.73;;;3.50;99.90;;;;;;6338165;22;20041;-90
2024/02/12 02:08:36;;;;;;;5.07;1.30;;;3.50;99.90;;;;;;6337078;22;20013;-90
2024/02/12 02:11:04;;;;;;;3.35;1.35;;;3.40;99.90;;;;;;6337369;22;20481;-90
2024/02/12 02:13:34;;;;;;;4.05;1.02;;;3.40;99.90;;;;;;6336765;22;20006;-90
2024/02/12 02:16:00;;;;;;;3.97;1.63;;;3.40;99.90;;;;;;6336487;22;20059;-90
2024/02/12 02:18:29;;;;;;;5.03;1.30;;;3.40;99.90;;;;;;6337637;22;20007;-90
2024/02/12 02:20:56;;;;;;;4.10;1.55;;;3.30;99.90;;;;;;6337347;22;20002;-90
2024/02/12 02:23:22;;;;;;;8.93;1.42;;;3.30;99.90;;;;;;6337172;22;20014;-89
2024/02/12 02:25:49;;;;;;;10.73;1.65;;;3.30;99.90;;;;;;6335778;22;20060;-90
2024/02/12 02:28:18;;;;;;;10.57;1.90;;;3.30;99.90;;;;;;6337049;22;20081;-90
2024/02/12 02:30:43;;;;;;;9.48;2.10;;;3.30;99.90;;;;;;6337628;22;20014;-90
2024/02/12 02:33:10;;;;;;;5.60;1.52;;;3.30;99.90;;;;;;6336601;22;19999;-89
2024/02/12 02:35:36;;;;;;;7.85;1.90;;;3.20;99.90;;;;;;6336240;22;20007;-91
2024/02/12 02:38:02;;;;;;;6.25;1.40;;;3.20;99.90;;;;;;6336408;22;20003;-90
2024/02/12 02:40:28;;;;;;;4.88;1.20;;;3.30;99.90;;;;;;6336622;22;20568;-90
2024/02/12 02:42:54;;;;;;;6.43;1.25;;;3.30;99.90;;;;;;6335911;22;20018;-92
2024/02/12 02:45:21;;;;;;;8.77;2.40;;;3.30;99.90;;;;;;6336815;22;20026;-90
2024/02/12 02:47:49;;;;;;;3.03;1.40;;;3.30;99.90;;;;;;6337206;22;20006;-90
2024/02/12 02:50:15;;;;;;;4.95;1.33;;;3.30;99.90;;;;;;6336226;22;20007;-91
2024/02/12 02:52:40;;;;;;;7.35;1.48;;;3.40;99.90;;;;;;6336185;22;20101;-90
2024/02/12 02:55:08;;;;;;;10.00;1.45;;;3.40;99.90;;;;;;6336605;22;20387;-90
2024/02/12 02:57:34;;;;;;;6.28;1.65;;;3.40;99.90;;;;;;6336444;22;20106;-90
2024/02/12 03:00:05;;;;;;;7.75;1.88;;;3.40;99.90;;;;;;6338208;22;20060;-90
2024/02/12 03:02:30;;;;;;;9.20;1.17;;;3.40;99.90;;;;;;6337653;22;20483;-90
2024/02/12 03:04:56;;;;;;;11.20;1.33;;;3.40;99.90;;;;;;6338426;22;19995;-90
2024/02/12 03:07:22;;;;;;;7.18;1.60;;;3.40;99.90;;;;;;6338813;22;20087;-90
2024/02/12 03:09:48;;;;;;;2.22;1.02;;;3.50;99.90;;;;;;6339159;22;20018;-90
2024/02/12 03:12:13;;;;;;;9.27;1.40;;;3.40;99.90;;;;;;6339931;22;20038;-88
2024/02/12 03:14:40;;;;;;;6.70;1.33;;;3.50;99.90;;;;;;6338696;22;20003;-89
2024/02/12 03:17:06;;;;;;;2.95;1.38;;;3.50;99.90;;;;;;6343491;22;20441;-89
2024/02/12 03:19:31;;;;;;;10.75;2.42;;;3.50;99.90;;;;;;6343452;22;20002;-89
2024/02/12 03:21:57;;;;;;;6.78;1.60;;;3.50;99.90;;;;;;6343240;22;20062;-88
2024/02/12 03:24:26;;;;;;;8.88;2.38;;;3.60;99.90;;;;;;6343767;22;20002;-89
2024/02/12 03:26:51;;;;;;;6.97;1.20;;;3.60;99.90;;;;;;6343698;22;20010;-88
2024/02/12 03:29:19;;;;;;;4.65;1.00;;;3.60;99.90;;;;;;6343595;22;20017;-89
2024/02/12 03:31:46;;;;;;;10.43;1.42;;;3.60;99.90;;;;;;6343505;22;20008;-89
2024/02/12 03:34:12;;;;;;;8.90;1.80;;;3.70;99.90;;;;;;6343524;22;20006;-89
2024/02/12 03:36:44;;;;;;;6.78;1.50;;;3.70;99.90;;;;;;6343667;22;20055;-89
2024/02/12 03:39:10;;;;;;;13.65;1.48;;;3.70;99.90;;;;;;6343322;22;20003;-89
2024/02/12 03:41:36;;;;;;;10.52;1.83;;;3.70;99.90;;;;;;6371632;22;20069;-89
2024/02/12 03:44:03;;;;;;;8.07;1.35;;;3.70;99.90;;;;;;6343357;22;20040;-88
2024/02/12 03:46:31;;;;;;;4.70;1.45;;;3.70;99.90;;;;;;6343638;22;20005;-88
2024/02/12 03:59:56;;;;;;;14.77;2.40;;;3.70;99.90;;;;;;6371874;22;20013;-88
2024/02/12 04:02:23;;;;;;;5.93;1.50;;;3.70;99.90;;;;;;6343024;22;20010;-88
2024/02/12 04:04:52;;;;;;;8.93;2.13;;;3.70;99.90;;;;;;6343621;22;20006;-88
2024/02/12 04:07:19;;;;;;;6.55;1.58;;;3.70;99.90;;;;;;6343383;22;20081;-89
2024/02/12 04:09:45;;;;;;;10.80;2.47;;;3.70;99.90;;;;;;6343406;22;20021;-90
2024/02/12 04:12:14;;;;;;;3.92;2.35;;;3.70;99.90;;;;;;6342566;22;20314;-88
2024/02/12 04:14:42;;;;;;;8.35;2.58;;;3.70;99.90;;;;;;6371253;22;20002;-87
2024/02/12 04:17:13;;;;;;;6.22;2.00;;;3.70;99.90;;;;;;6343063;22;20040;-89
2024/02/12 04:19:39;;;;;;;8.25;3.35;;;3.70;99.90;;;;;;6343517;22;19995;-89
2024/02/12 04:22:09;;;;;;;5.55;1.40;;;3.70;99.90;;;;;;6342861;22;20386;-89
2024/02/12 04:24:39;;;;;;;2.00;1.10;;;3.70;99.90;;;;;;6343658;22;20003;-90
2024/02/12 04:27:10;;;;;;;5.43;2.42;;;3.60;99.90;;;;;;6343482;22;20010;-90
2024/02/12 04:29:37;;;;;;;7.07;1.58;;;3.60;99.90;;;;;;6343440;22;20007;-90
2024/02/12 04:32:12;;;;;;;8.55;1.20;;;3.60;99.90;;;;;;6343363;22;20093;-91
2024/02/12 04:34:42;;;;;;;3.33;1.65;;;3.50;99.90;;;;;;6343335;22;20002;-91
2024/02/12 04:37:10;;;;;;;5.87;1.47;;;3.50;99.90;;;;;;6343523;22;20445;-90
2024/02/12 04:39:36;;;;;;;10.73;2.20;;;3.50;99.90;;;;;;6343442;22;20240;-89
2024/02/12 04:42:04;;;;;;;3.75;1.50;;;3.50;99.90;;;;;;6342639;22;20002;-90
2024/02/12 04:44:30;;;;;;;4.70;2.13;;;3.50;99.90;;;;;;6343175;22;20325;-89
2024/02/12 04:46:58;;;;;;;3.10;1.67;;;3.40;99.90;;;;;;6343032;22;20002;-89
2024/02/12 04:49:24;;;;;;;1.65;1.20;;;3.40;99.90;;;;;;6342896;22;20608;-90
2024/02/12 04:51:51;;;;;;;5.35;1.50;;;3.50;99.90;;;;;;6343058;22;20045;-89
2024/02/12 04:54:16;;;;;;;4.47;1.48;;;3.40;99.90;;;;;;6343321;22;20009;-89
2024/02/12 04:56:42;;;;;;;4.43;1.42;;;3.40;99.90;;;;;;6342958;22;20318;-89
2024/02/12 04:59:14;;;;;;;6.03;1.38;;;3.40;99.90;;;;;;6342800;22;20512;-89
2024/02/12 05:01:40;;;;;;;4.47;1.20;;;3.40;99.90;;;;;;6342987;22;20413;-90
2024/02/12 05:04:06;;;;;;;4.25;2.17;;;3.40;99.90;;;;;;6343154;22;20003;-89
2024/02/12 05:06:33;;;;;;;5.05;1.50;;;3.40;99.90;;;;;;6342682;22;20002;-89
2024/02/12 05:09:11;;;;;;;8.18;1.83;;;3.40;99.90;;;;;;6342818;22;20033;-89
2024/02/12 05:11:36;;;;;;;3.90;1.02;;;3.40;99.90;;;;;;6342668;22;20433;-90
2024/02/12 05:14:02;;;;;;;2.83;1.20;;;3.40;99.90;;;;;;6342856;22;20081;-88
2024/02/12 05:16:32;;;;;;;3.10;1.10;;;3.40;99.90;;;;;;6342476;22;20022;-89
2024/02/12 05:24:30;;;;;;;1.05;0.77;;;3.40;99.90;;;;;;6371047;22;20025;-89
2024/02/12 05:26:58;;;;;;;6.53;1.10;;;3.40;99.90;;;;;;6343217;22;20014;-89
2024/02/12 05:29:26;;;;;;;2.45;1.00;;;3.40;99.90;;;;;;6370875;22;20002;-89
2024/02/12 05:31:53;;;;;;;1.48;1.00;;;3.40;99.90;;;;;;6343182;22;20010;-89
2024/02/12 05:34:21;;;;;;;4.28;1.10;;;3.40;99.90;;;;;;6343006;22;20077;-89
2024/02/12 05:36:53;;;;;;;3.72;1.02;;;3.40;99.90;;;;;;6342898;22;20018;-89
2024/02/12 05:39:21;;;;;;;3.92;1.27;;;3.40;99.90;;;;;;6342921;22;20003;-89
2024/02/12 05:41:47;;;;;;;3.30;1.10;;;3.30;99.90;;;;;;6342861;22;20002;-89
2024/02/12 05:44:13;;;;;;;3.50;1.50;;;3.30;99.90;;;;;;6342908;22;19998;-89
2024/02/12 05:46:41;;;;;;;4.82;1.08;;;3.30;99.90;;;;;;6343294;22;20006;-91
2024/02/12 05:49:09;;;;;;;5.55;1.30;;;3.30;99.90;;;;;;6342754;22;19999;-89
2024/02/12 05:51:37;;;;;;;6.25;1.15;;;3.30;99.90;;;;;;6342384;22;20425;-90
2024/02/12 05:54:03;;;;;;;5.63;2.47;;;3.30;99.90;;;;;;6342791;22;20003;-89
2024/02/12 05:56:29;;;;;;;2.70;1.15;;;3.30;99.90;;;;;;6343422;22;20010;-89
2024/02/12 05:58:55;;;;;;;6.05;1.50;;;3.30;99.90;;;;;;6343274;22;20500;-90
2024/02/12 06:01:21;;;;;;;5.78;1.85;;;3.30;99.90;;;;;;6346188;22;20059;-89
2024/02/12 06:03:47;;;;;;;4.68;1.33;;;3.20;99.90;;;;;;6353694;22;20097;-89
2024/02/12 06:06:12;;;;;;;4.35;1.38;;;3.20;99.90;;;;;;6354917;22;19999;-89
2024/02/12 06:08:38;;;;;;;2.45;1.02;;;3.20;99.90;;;;;;6354000;22;20002;-89
2024/02/12 06:11:04;;;;;;;9.95;2.88;;;3.20;99.90;;;;;;6380887;22;20017;-89
2024/02/12 06:13:30;;;;;;;3.65;1.33;;;3.20;99.90;;;;;;6352398;22;20002;-89
2024/02/12 06:15:56;;;;;;;6.25;1.65;;;3.20;99.90;;;;;;6346351;22;20420;-89
2024/02/12 06:18:21;;;;;;;6.75;1.95;;;3.20;99.90;;;;;;6350726;22;19999;-89
2024/02/12 06:20:48;;;;;;;3.88;1.77;;;3.20;99.90;;;;;;6353113;22;20066;-89
2024/02/12 06:23:14;;;;;;;4.90;1.30;;;3.20;99.90;;;;;;6353175;22;20038;-89
2024/02/12 06:25:41;;;;;;;5.63;1.63;;;3.20;99.90;;;;;;6345976;22;20055;-89
2024/02/12 06:28:09;;;;;;;4.93;1.77;;;3.20;99.90;;;;;;6345766;22;20002;-89
2024/02/12 06:30:35;;;;;;;4.88;1.98;;;3.20;99.90;;;;;;6346580;22;19999;-89
2024/02/12 06:33:02;;;;;;;3.92;1.60;;;3.20;99.90;;;;;;6346427;22;20037;-89
2024/02/12 06:35:29;;;;;;;5.53;1.48;;;3.20;99.90;;;;;;6349034;22;20007;-89
2024/02/12 06:37:55;;;;;;;4.55;1.30;;;3.30;99.90;;;;;;6352327;22;20011;-89
2024/02/12 06:40:21;;;;;;;5.22;1.50;;;3.30;99.90;;;;;;6347922;22;20097;-89
2024/02/12 06:42:47;;;;;;;6.60;1.23;;;3.20;99.90;;;;;;6346110;22;20038;-89
2024/02/12 06:45:16;;;;;;;5.40;1.45;;;3.30;99.90;;;;;;6345326;22;20007;-89
2024/02/12 06:47:43;;;;;;;5.22;1.48;;;3.30;99.90;;;;;;6345373;22;20034;-89
2024/02/12 06:50:09;;;;;;;5.55;1.60;;;3.30;99.90;;;;;;6345326;22;20085;-89
2024/02/12 06:52:35;;;;;;;5.55;1.48;;;3.30;99.90;;;;;;6345723;22;20006;-88
2024/02/12 06:55:01;;;;;;;2.70;1.08;;;3.30;99.90;;;;;;6343726;22;20003;-89
2024/02/12 06:57:27;;;;;;;4.15;1.77;;;3.20;99.90;;;;;;6344565;22;20019;-88
2024/02/12 06:59:52;;;;;;;6.68;2.03;;;3.20;99.90;;;;;;6344621;22;19998;-88
2024/02/12 07:02:19;;;;;;;4.55;1.42;;;3.20;99.90;;;;;;6344732;22;20002;-88
2024/02/12 07:04:47;;;;;;;6.72;1.77;;;3.20;99.90;;;;;;6343951;22;20005;-88
2024/02/12 07:07:13;;;;;;;4.28;2.17;;;3.20;99.90;;;;;;6343722;22;20002;-87
2024/02/12 07:09:38;;;;;;;10.73;2.50;;;3.20;99.90;;;;;;6344255;22;20045;-88
2024/02/12 07:12:06;;;;;;;7.72;1.90;;;3.20;99.90;;;;;;6344587;22;20013;-88
2024/02/12 07:14:34;;;;;;;4.18;2.00;;;3.20;99.90;;;;;;6344691;22;20006;-89
2024/02/12 07:16:59;;;;;;;10.73;2.78;;;3.20;99.90;;;;;;6339617;22;20015;-89
2024/02/12 07:19:26;;;;;;;8.25;1.88;;;3.20;99.90;;;;;;6340074;22;19999;-88
2024/02/12 07:21:52;;;;;;;4.35;1.48;;;3.20;99.90;;;;;;6345701;22;20035;-88
2024/02/12 07:24:18;;;;;;;5.40;1.60;;;3.20;99.90;;;;;;6350161;22;20006;-88
2024/02/12 07:26:44;;;;;;;4.53;1.55;;;3.20;99.90;;;;;;6347412;22;20392;-88
2024/02/12 07:29:10;;;;;;;6.95;2.03;;;3.20;99.90;;;;;;6345993;22;19998;-90
2024/02/12 07:31:36;;;;;;;6.97;1.60;;;3.20;99.90;;;;;;6340734;22;20010;-89
2024/02/12 07:34:03;;;;;;;9.95;1.48;;;3.20;99.90;;;;;;6343094;22;20005;-91
2024/02/12 07:36:29;;;;;;;7.50;1.48;;;3.20;99.90;;;;;;6340738;22;20013;-89
2024/02/12 07:38:55;;;;;;;9.50;2.10;;;3.30;99.90;;;;;;6340051;22;20010;-89
2024/02/12 07:41:21;;;;;;;2.67;1.40;;;3.30;99.90;;;;;;6339876;22;20006;-90
2024/02/12 07:43:48;;;;;;;4.97;1.73;;;3.30;99.90;;;;;;6342219;22;20007;-89
2024/02/12 07:46:14;;;;;;;6.35;1.38;;;3.30;99.90;;;;;;6342150;22;20013;-89
2024/02/12 07:48:41;;;;;;;8.40;1.10;;;3.30;99.90;;;;;;6339108;22;20014;-89
2024/02/12 07:51:07;;;;;;;6.88;1.48;;;3.40;99.90;;;;;;6338736;22;20013;-89
2024/02/12 07:53:33;;;;;;;6.95;1.05;;;3.40;99.90;;;;;;6339862;22;20003;-89
2024/02/12 07:55:58;;;;;;;7.65;1.20;;;3.40;99.90;;;;;;6338329;22;20013;-89
2024/02/12 07:58:24;;;;;;;7.70;1.90;;;3.50;99.90;;;;;;6338870;22;20007;-90
2024/02/12 08:00:50;;;;;;;4.97;0.93;;;3.50;99.90;;;;;;6339309;22;20304;-90
2024/02/12 08:03:20;;;;;;;5.00;0.95;;;3.50;99.90;;;;;;6341218;22;19999;-88
2024/02/12 08:05:46;;;;;;;5.57;2.03;;;3.60;99.90;;;;;;6340266;22;20006;-90
2024/02/12 08:08:13;;;;;;;6.63;1.90;;;3.60;99.90;;;;;;6339374;22;20092;-90
2024/02/12 08:10:43;;;;;;;7.25;1.15;;;3.70;99.90;;;;;;6338855;22;20003;-90
2024/02/12 08:13:09;;;;;;;10.32;2.22;;;3.70;99.90;;;;;;6339170;22;20484;-88
2024/02/12 08:15:35;;;;;;;4.90;1.13;;;3.80;99.90;;;;;;6338659;22;20018;-90
2024/02/12 08:18:06;;;;;;;2.83;0.80;;;3.80;99.90;;;;;;6338914;22;20019;-90
2024/02/12 08:20:35;;;;;;;6.88;1.35;;;3.90;99.90;;;;;;6336929;22;19998;-90
2024/02/12 08:23:03;;;;;;;8.30;1.17;;;3.90;99.90;;;;;;6338381;22;20003;-90
2024/02/12 08:25:33;;;;;;;8.13;1.20;;;4.00;99.90;;;;;;6339092;22;20091;-90
2024/02/12 08:27:58;;;;;;;7.22;1.20;;;4.00;99.90;;;;;;6338977;22;20006;-89
2024/02/12 08:30:25;;;;;;;7.65;1.10;;;4.00;99.90;;;;;;6338743;22;20007;-89
2024/02/12 08:32:51;;;;;;;3.90;1.02;;;4.10;99.90;;;;;;6339189;22;20031;-90
2024/02/12 08:35:18;;;;;;;6.30;0.85;;;4.10;99.90;;;;;;6338772;22;20491;-90
2024/02/12 08:37:44;;;;;;;4.38;1.00;;;4.10;99.90;;;;;;6338146;22;20020;-89
2024/02/12 08:40:11;;;;;;;5.30;0.85;;;4.10;99.90;;;;;;6339019;22;19995;-88
2024/02/12 08:42:44;;;;;;;15.98;1.85;;;4.10;99.90;;;;;;6339030;22;20058;-91
2024/02/12 08:45:10;;;;;;;6.72;1.30;;;4.10;99.90;;;;;;6338567;22;19999;-89
2024/02/12 08:47:37;;;;;;;6.63;1.10;;;4.20;99.90;;;;;;6338321;22;20019;-89
2024/02/12 08:50:03;;;;;;;5.80;1.42;;;4.20;99.90;;;;;;6336887;22;20493;-91
2024/02/12 08:52:31;;;;;;;8.23;1.70;;;4.20;99.90;;;;;;6337959;22;20086;-89
2024/02/12 08:54:59;;;;;;;9.60;1.52;;;4.20;99.90;;;;;;6337364;22;20010;-89
2024/02/12 08:57:26;;;;;;;6.72;1.52;;;4.20;99.90;;;;;;6338183;22;20059;-90
2024/02/12 08:59:52;;;;;;;13.98;4.03;;;4.30;99.90;;;;;;6338019;22;20018;-89
2024/02/12 09:02:18;;;;;;;22.95;5.65;;;4.30;99.90;;;;;;6337670;22;20093;-89
2024/02/12 09:04:44;;;;;;;11.43;3.58;;;4.30;99.90;;;;;;6339237;22;20054;-90
2024/02/12 09:07:11;;;;;;;11.82;2.58;;;4.30;99.90;;;;;;6336946;22;20029;-91
2024/02/12 09:09:37;;;;;;;27.88;7.97;;;4.30;99.90;;;;;;6337320;22;20003;-91
2024/02/12 09:12:03;;;;;;;22.63;5.68;;;4.40;99.90;;;;;;6337163;22;20007;-90
2024/02/12 09:14:29;;;;;;;11.57;3.75;;;4.40;99.90;;;;;;6337592;22;20334;-89
2024/02/12 09:16:55;;;;;;;17.52;3.10;;;4.50;99.90;;;;;;6337079;22;20021;-91
2024/02/12 09:19:20;;;;;;;16.70;3.72;;;4.60;99.90;;;;;;6337461;22;20426;-89
2024/02/12 09:21:46;;;;;;;10.27;2.35;;;4.70;99.90;;;;;;6337824;22;19999;-89
2024/02/12 09:24:13;;;;;;;9.68;1.52;;;4.80;99.90;;;;;;6333269;22;20086;-90
2024/02/12 09:26:42;;;;;;;5.75;1.48;;;4.80;99.90;;;;;;6334550;22;20523;-91
2024/02/12 09:29:08;;;;;;;3.63;1.03;;;4.80;99.90;;;;;;6336467;22;20003;-88
2024/02/12 09:31:34;;;;;;;8.45;1.13;;;4.80;99.90;;;;;;6336442;22;20394;-90
2024/02/12 09:34:02;;;;;;;7.72;1.92;;;4.80;99.90;;;;;;6335599;22;20030;-90
2024/02/12 09:36:28;;;;;;;10.80;2.17;;;4.80;99.90;;;;;;6336184;22;20007;-89
2024/02/12 09:38:54;;;;;;;4.95;1.20;;;4.80;99.90;;;;;;6338094;22;20061;-88
2024/02/12 09:41:26;;;;;;;8.18;1.73;;;4.80;99.90;;;;;;6338239;22;20002;-88
2024/02/12 09:43:54;;;;;;;10.55;1.60;;;4.90;99.90;;;;;;6337251;22;20014;-90
2024/02/12 09:46:21;;;;;;;4.40;1.35;;;4.90;99.90;;;;;;6336892;22;20032;-90
2024/02/12 09:48:48;;;;;;;11.30;1.95;;;4.90;99.90;;;;;;6336768;22;20007;-89
2024/02/12 09:51:15;;;;;;;7.53;1.50;;;4.90;99.90;;;;;;6337803;22;20097;-88
2024/02/12 09:53:51;;;;;;;12.10;2.95;;;4.90;99.90;;;;;;6337775;22;20007;-88
2024/02/12 09:56:18;;;;;;;12.63;1.85;;;4.90;99.90;;;;;;6339763;22;20582;-89
2024/02/12 09:58:44;;;;;;;7.18;1.65;;;4.90;99.90;;;;;;6312535;22;20007;-89
2024/02/12 10:01:11;;;;;;;11.38;2.28;;;5.00;99.90;;;;;;6337629;22;20060;-90
2024/02/12 10:03:38;;;;;;;20.25;2.03;;;5.00;99.90;;;;;;6337741;22;20002;-89
2024/02/12 10:06:04;;;;;;;11.27;1.50;;;5.10;99.90;;;;;;6337923;22;20092;-89
2024/02/12 10:08:31;;;;;;;13.52;2.42;;;5.10;99.90;;;;;;6336016;22;20009;-88
2024/02/12 10:10:56;;;;;;;20.77;3.42;;;5.10;99.90;;;;;;6336484;22;20038;-90
2024/02/12 10:13:23;;;;;;;11.75;2.03;;;5.10;99.90;;;;;;6337169;22;20006;-89
2024/02/12 10:15:51;;;;;;;12.48;2.30;;;5.10;99.90;;;;;;6337065;22;20018;-90
2024/02/12 10:18:17;;;;;;;15.35;4.38;;;5.20;99.90;;;;;;6336757;22;20006;-89
2024/02/12 10:20:44;;;;;;;28.40;5.75;;;5.20;99.90;;;;;;6337494;22;20093;-90
2024/02/12 10:23:15;;;;;;;11.88;2.00;;;5.20;99.90;;;;;;6337144;22;20007;-89
2024/02/12 10:25:48;;;;;;;10.20;2.22;;;5.30;99.90;;;;;;6337680;22;20430;-90
2024/02/12 10:28:15;;;;;;;5.32;1.13;;;5.40;99.90;;;;;;6337352;22;20018;-90
2024/02/12 10:30:42;;;;;;;10.93;1.42;;;5.50;99.90;;;;;;6336665;22;20007;-90
2024/02/12 10:33:10;;;;;;;10.38;1.55;;;5.50;99.90;;;;;;6337671;22;20338;-89
2024/02/12 10:35:41;;;;;;;7.88;1.60;;;5.60;99.90;;;;;;6337430;22;20024;-88
2024/02/12 10:38:07;;;;;;;12.02;1.85;;;5.60;99.90;;;;;;6335726;22;20449;-90
2024/02/12 10:40:42;;;;;;;8.48;1.30;;;5.70;99.90;;;;;;6337222;22;20010;-89
2024/02/12 10:43:09;;;;;;;9.85;2.53;;;5.70;99.90;;;;;;6311182;22;20017;-90
2024/02/12 10:45:35;;;;;;;12.20;1.50;;;5.70;99.90;;;;;;6335473;22;20013;-90
2024/02/12 10:48:04;;;;;;;10.38;1.70;;;5.70;99.90;;;;;;6339078;22;20022;-91
2024/02/12 10:50:30;;;;;;;14.70;1.67;;;5.80;99.90;;;;;;6341495;22;20011;-91
2024/02/12 10:52:57;;;;;;;10.63;1.42;;;5.90;99.90;;;;;;6338782;22;20434;-91
2024/02/12 10:55:23;;;;;;;7.53;1.30;;;6.10;99.90;;;;;;6338391;22;20075;-90
2024/02/12 10:57:50;;;;;;;5.32;1.17;;;6.40;99.90;;;;;;6341851;22;20015;-90
2024/02/12 11:00:25;;;;;;;9.73;1.52;;;6.60;99.90;;;;;;6343458;22;20071;-89
2024/02/12 11:02:54;;;;;;;10.93;1.70;;;6.80;99.90;;;;;;6342752;22;20007;-90
2024/02/12 11:05:23;;;;;;;12.70;1.48;;;7.00;99.90;;;;;;6337354;22;20007;-90
2024/02/12 11:08:03;;;;;;;7.72;1.25;;;7.10;99.90;;;;;;6337972;22;19995;-90
2024/02/12 11:10:33;;;;;;;18.35;2.33;;;7.20;99.90;;;;;;6338859;22;20007;-90
2024/02/12 11:13:05;;;;;;;5.13;1.55;;;7.30;99.90;;;;;;6337953;22;20003;-92
2024/02/12 11:15:37;;;;;;;4.80;1.60;;;7.40;99.90;;;;;;6333947;22;20018;-92
2024/02/12 11:18:13;;;;;;;2.92;0.90;;;7.50;99.90;;;;;;6337322;22;20019;-91
2024/02/12 11:20:50;;;;;;;9.27;1.40;;;7.50;99.90;;;;;;6337149;22;20093;-90
2024/02/12 11:23:24;;;;;;;17.92;1.50;;;7.60;99.90;;;;;;6313145;22;20014;-93
2024/02/12 11:25:56;;;;;;;10.65;1.55;;;7.50;99.90;;;;;;6339358;22;20399;-89
2024/02/12 11:28:25;;;;;;;8.32;1.00;;;7.50;99.90;;;;;;6338701;22;19999;-89
2024/02/12 11:30:52;;;;;;;9.25;1.40;;;7.40;99.90;;;;;;6339325;22;20003;-88
2024/02/12 11:33:24;;;;;;;7.65;1.48;;;7.30;99.90;;;;;;6338573;22;20086;-91
2024/02/12 11:36:05;;;;;;;9.63;1.30;;;7.20;99.90;;;;;;6339906;22;20011;-90
2024/02/12 11:38:31;;;;;;;13.80;1.70;;;7.20;99.90;;;;;;6339515;22;20015;-91
2024/02/12 11:41:00;;;;;;;12.50;1.67;;;7.10;99.90;;;;;;6339789;22;20029;-90
2024/02/12 11:43:33;;;;;;;9.70;2.22;;;7.10;99.90;;;;;;6338437;22;20014;-92
2024/02/12 11:46:02;;;;;;;10.82;2.55;;;7.20;99.90;;;;;;6311939;22;20097;-91
2024/02/12 11:48:31;;;;;;;6.57;2.13;;;7.50;99.90;;;;;;6338856;22;20430;-90
2024/02/12 11:50:57;;;;;;;15.63;4.05;;;7.80;99.90;;;;;;6338659;22;20438;-93
2024/02/12 11:53:26;;;;;;;17.67;2.22;;;8.20;99.90;;;;;;6339374;22;20369;-93
2024/02/12 11:55:56;;;;;;;10.90;1.50;;;8.60;99.90;;;;;;6338453;22;20383;-93
2024/02/12 11:58:24;;;;;;;11.15;1.63;;;8.90;99.90;;;;;;6338401;22;20330;-90
2024/02/12 12:00:51;;;;;;;7.35;1.05;;;9.30;99.90;;;;;;6340202;22;20030;-94
2024/02/12 12:03:17;;;;;;;9.02;1.45;;;9.60;99.90;;;;;;6336812;22;20445;-85
2024/02/12 12:05:44;;;;;;;10.57;1.23;;;10.00;99.90;;;;;;6337567;22;19994;-81
2024/02/12 12:08:10;;;;;;;7.55;1.25;;;10.00;99.90;;;;;;6337480;22;20285;-81
2024/02/12 12:10:36;;;;;;;5.68;1.35;;;9.90;99.90;;;;;;6311368;22;20427;-81
2024/02/12 12:13:02;;;;;;;10.57;1.45;;;9.70;99.90;;;;;;6338508;22;19999;-81
2024/02/12 12:15:29;;;;;;;6.05;1.10;;;9.90;99.90;;;;;;6310901;22;19995;-81
2024/02/12 12:17:57;;;;;;;8.00;1.40;;;10.20;99.90;;;;;;6310717;22;19999;-81
2024/02/12 12:20:28;;;;;;;11.98;3.20;;;10.60;99.90;;;;;;6310882;22;19999;-81
2024/02/12 12:22:54;;;;;;;11.93;1.67;;;10.90;99.90;;;;;;6338779;22;20070;-81
2024/02/12 12:25:20;;;;;;;11.40;1.20;;;11.30;99.90;;;;;;6338231;22;20017;-81
2024/02/12 12:27:49;;;;;;;7.68;1.45;;;11.50;99.90;;;;;;6310229;22;20007;-82
2024/02/12 12:30:19;;;;;;;7.68;1.58;;;11.70;99.30;;;;;;6311134;22;20026;-81
2024/02/12 12:32:50;;;;;;;7.90;1.70;;;12.00;97.80;;;;;;6309750;22;19995;-81
2024/02/12 12:35:16;;;;;;;9.82;1.50;;;12.30;97.00;;;;;;6310535;22;19999;-81
2024/02/12 12:37:43;;;;;;;5.05;1.40;;;12.40;94.60;;;;;;6338476;22;19995;-81
2024/02/12 12:40:18;;;;;;;8.20;1.45;;;12.60;94.40;;;;;;6337837;22;19995;-80
2024/02/12 12:42:48;;;;;;;4.32;1.63;;;12.70;93.20;;;;;;6338367;22;20389;-80
2024/02/12 12:45:16;;;;;;;10.45;1.73;;;12.30;91.00;;;;;;6338336;22;20409;-80
2024/02/12 12:47:42;;;;;;;9.68;2.00;;;12.00;91.10;;;;;;6336494;22;20409;-80
2024/02/12 12:50:09;;;;;;;12.55;3.05;;;11.70;91.20;;;;;;6338309;22;20021;-81
2024/02/12 12:52:38;;;;;;;7.07;1.40;;;11.40;91.60;;;;;;6337575;22;20456;-81
2024/02/12 12:55:08;;;;;;;10.30;1.30;;;11.50;91.90;;;;;;6310005;22;20003;-80
2024/02/12 12:57:34;;;;;;;5.65;1.45;;;11.80;92.00;;;;;;6337330;22;20009;-80
2024/02/12 13:00:04;;;;;;;4.15;1.42;;;12.10;91.10;;;;;;6310192;22;20011;-80
2024/02/12 13:02:32;;;;;;;8.90;1.60;;;12.30;90.30;;;;;;6310220;22;20424;-80
2024/02/12 13:04:57;;;;;;;5.97;1.42;;;12.20;87.30;;;;;;6309452;22;20015;-80
2024/02/12 13:07:23;;;;;;;5.00;1.10;;;12.00;86.30;;;;;;6335545;22;20030;-79
2024/02/12 13:09:50;;;;;;;8.85;1.30;;;11.80;86.40;;;;;;6337719;22;20073;-81